createdAt,value
2018-11-28T00:00:45.764Z,41.90
2018-11-28T00:01:45.838Z,40.60
2018-11-28T00:02:45.767Z,41.20
2018-11-28T00:03:45.772Z,42.60
2018-11-28T00:04:45.791Z,42.70
2018-11-28T00:05:45.759Z,44.90
2018-11-28T00:06:45.807Z,45.90
2018-11-28T00:07:45.757Z,42.10
2018-11-28T00:08:45.800Z,38.40
2018-11-28T00:10:45.757Z,41.00
2018-11-28T00:11:45.754Z,40.20
2018-11-28T00:12:45.781Z,41.60
2018-11-28T00:13:45.761Z,43.10
2018-11-28T00:14:45.800Z,45.00
2018-11-28T00:15:45.769Z,45.60
2018-11-28T00:16:45.794Z,41.80
2018-11-28T00:17:45.775Z,42.30
2018-11-28T00:18:45.868Z,44.00
2018-11-28T00:19:45.780Z,45.60
2018-11-28T00:20:45.843Z,40.10
2018-11-28T00:21:45.764Z,43.20
2018-11-28T00:22:45.921Z,43.80
2018-11-28T00:23:45.768Z,40.20
2018-11-28T00:24:46.816Z,44.70
2018-11-28T00:25:45.756Z,43.20
2018-11-28T00:26:45.851Z,42.20
2018-11-28T00:27:45.758Z,40.20
2018-11-28T00:28:45.934Z,39.90
2018-11-28T00:29:45.777Z,42.90
2018-11-28T00:31:45.772Z,43.80
2018-11-28T00:32:45.890Z,45.10
2018-11-28T00:34:46.870Z,44.20
2018-11-28T00:35:45.762Z,43.40
2018-11-28T00:37:45.763Z,47.60
2018-11-28T00:38:46.084Z,52.20
2018-11-28T00:39:45.748Z,44.80
2018-11-28T00:40:46.105Z,45.40
2018-11-28T00:41:45.753Z,46.70
2018-11-28T00:42:46.187Z,47.50
2018-11-28T00:44:45.790Z,46.90
2018-11-28T00:45:45.783Z,51.10
2018-11-28T00:46:46.046Z,48.60
2018-11-28T00:47:45.769Z,48.80
2018-11-28T00:48:45.910Z,53.40
2018-11-28T00:49:45.749Z,49.70
2018-11-28T00:50:45.888Z,43.70
2018-11-28T00:51:45.759Z,47.00
2018-11-28T00:52:46.154Z,45.60
2018-11-28T00:53:45.753Z,47.90
2018-11-28T00:54:46.156Z,47.70
2018-11-28T00:55:48.463Z,48.80
2018-11-28T00:56:46.122Z,47.60
2018-11-28T00:57:46.106Z,49.20
2018-11-28T00:58:45.772Z,51.50
2018-11-28T00:59:45.762Z,50.90
2018-11-28T01:00:45.772Z,49.00
2018-11-28T01:01:45.759Z,50.60
2018-11-28T01:02:46.591Z,51.20
2018-11-28T01:03:45.747Z,58.70
2018-11-28T01:04:45.734Z,48.20
2018-11-28T01:05:45.748Z,44.00
2018-11-28T01:07:45.782Z,50.80
2018-11-28T01:08:45.746Z,49.90
2018-11-28T01:09:45.737Z,47.90
2018-11-28T01:10:45.782Z,48.30
2018-11-28T01:12:45.733Z,48.20
2018-11-28T01:13:45.767Z,48.20
2018-11-28T01:14:45.740Z,46.20
2018-11-28T01:15:45.733Z,47.70
2018-11-28T01:16:45.739Z,52.80
2018-11-28T01:17:45.761Z,49.00
2018-11-28T01:18:45.729Z,49.90
2018-11-28T01:19:45.734Z,50.80
2018-11-28T01:20:45.736Z,48.30
2018-11-28T01:21:45.731Z,51.00
2018-11-28T01:24:45.739Z,47.60
2018-11-28T01:25:45.739Z,48.80
2018-11-28T01:26:45.731Z,47.10
2018-11-28T01:27:45.737Z,50.80
2018-11-28T01:28:46.589Z,48.70
2018-11-28T01:29:45.730Z,50.60
2018-11-28T01:30:45.729Z,48.50
2018-11-28T01:31:45.747Z,47.60
2018-11-28T01:32:45.743Z,52.60
2018-11-28T01:33:45.767Z,53.50
2018-11-28T01:34:45.723Z,52.00
2018-11-28T01:35:45.731Z,48.90
2018-11-28T01:36:45.731Z,49.70
2018-11-28T01:37:45.738Z,54.20
2018-11-28T01:38:45.728Z,55.00
2018-11-28T01:39:45.729Z,51.30
2018-11-28T01:40:45.722Z,54.10
2018-11-28T01:41:45.810Z,54.40
2018-11-28T01:42:45.731Z,50.10
2018-11-28T01:43:45.722Z,50.60
2018-11-28T01:45:45.724Z,55.50
2018-11-28T01:46:45.729Z,55.70
2018-11-28T01:47:45.723Z,56.60
2018-11-28T01:48:45.716Z,57.50
2018-11-28T01:49:45.719Z,56.50
2018-11-28T01:50:45.724Z,53.50
2018-11-28T01:51:45.719Z,56.80
2018-11-28T01:52:45.715Z,53.30
2018-11-28T01:53:45.717Z,54.00
2018-11-28T01:54:45.715Z,55.60
2018-11-28T01:55:45.708Z,56.30
2018-11-28T01:56:45.719Z,52.60
2018-11-28T01:57:45.717Z,55.50
2018-11-28T01:58:45.717Z,54.70
2018-11-28T01:59:45.714Z,54.80
2018-11-28T02:00:45.716Z,52.00
2018-11-28T02:01:45.706Z,51.50
2018-11-28T02:02:45.719Z,50.80
2018-11-28T02:03:45.712Z,52.70
2018-11-28T02:04:45.712Z,56.40
2018-11-28T02:05:45.745Z,52.00
2018-11-28T02:06:45.706Z,53.00
2018-11-28T02:07:45.713Z,56.20
2018-11-28T02:08:45.713Z,53.60
2018-11-28T02:09:45.714Z,53.20
2018-11-28T02:11:45.709Z,50.90
2018-11-28T02:12:45.701Z,50.40
2018-11-28T02:13:45.706Z,54.80
2018-11-28T02:14:45.777Z,49.30
2018-11-28T02:15:45.708Z,50.50
2018-11-28T02:16:45.709Z,50.90
2018-11-28T02:17:45.711Z,52.10
2018-11-28T02:18:45.709Z,52.50
2018-11-28T02:19:45.711Z,50.60
2018-11-28T02:20:45.703Z,51.20
2018-11-28T02:21:45.714Z,51.60
2018-11-28T02:22:45.711Z,52.30
2018-11-28T02:23:45.701Z,52.20
2018-11-28T02:24:45.759Z,52.30
2018-11-28T02:25:45.698Z,49.50
2018-11-28T02:26:45.700Z,49.60
2018-11-28T02:27:45.697Z,50.70
2018-11-28T02:28:45.698Z,53.20
2018-11-28T02:29:45.698Z,48.80
2018-11-28T02:30:45.699Z,47.30
2018-11-28T02:31:45.701Z,47.00
2018-11-28T02:32:45.715Z,49.50
2018-11-28T02:33:45.702Z,46.60
2018-11-28T02:34:45.699Z,46.60
2018-11-28T02:35:45.703Z,47.40
2018-11-28T02:37:45.699Z,50.30
2018-11-28T02:38:45.714Z,49.90
2018-11-28T02:39:45.693Z,47.20
2018-11-28T02:40:45.690Z,49.70
2018-11-28T02:42:45.707Z,43.70
2018-11-28T02:43:45.694Z,45.00
2018-11-28T02:44:45.692Z,48.60
2018-11-28T02:45:45.694Z,50.40
2018-11-28T02:46:45.692Z,45.60
2018-11-28T02:47:45.684Z,45.30
2018-11-28T02:48:45.689Z,45.70
2018-11-28T02:49:45.693Z,45.90
2018-11-28T02:50:45.689Z,43.90
2018-11-28T02:52:45.687Z,43.40
2018-11-28T02:53:45.688Z,45.70
2018-11-28T02:54:45.695Z,43.10
2018-11-28T02:55:45.689Z,45.30
2018-11-28T02:56:45.695Z,44.20
2018-11-28T02:57:45.687Z,42.10
2018-11-28T02:58:45.689Z,43.70
2018-11-28T02:59:45.689Z,44.00
2018-11-28T03:00:45.685Z,43.40
2018-11-28T03:01:45.680Z,44.40
2018-11-28T03:02:45.691Z,44.90
2018-11-28T03:03:45.693Z,47.60
2018-11-28T03:04:45.686Z,45.40
2018-11-28T03:05:45.676Z,46.40
2018-11-28T03:06:45.691Z,43.70
2018-11-28T03:07:45.689Z,42.80
2018-11-28T03:08:45.685Z,44.60
2018-11-28T03:09:45.682Z,45.70
2018-11-28T03:10:45.682Z,44.40
2018-11-28T03:11:45.681Z,47.20
2018-11-28T03:12:45.685Z,43.80
2018-11-28T03:13:45.684Z,39.50
2018-11-28T03:14:45.690Z,47.40
2018-11-28T03:15:45.678Z,49.20
2018-11-28T03:16:45.678Z,44.00
2018-11-28T03:17:45.699Z,44.50
2018-11-28T03:18:45.680Z,44.60
2018-11-28T03:19:45.679Z,45.10
2018-11-28T03:20:45.686Z,42.70
2018-11-28T03:21:45.676Z,46.40
2018-11-28T03:22:45.673Z,45.20
2018-11-28T03:23:45.694Z,41.90
2018-11-28T03:24:45.672Z,46.30
2018-11-28T03:25:45.669Z,46.10
2018-11-28T03:26:45.677Z,45.40
2018-11-28T03:27:45.678Z,44.10
2018-11-28T03:28:45.669Z,44.90
2018-11-28T03:29:45.676Z,45.40
2018-11-28T03:30:45.671Z,43.30
2018-11-28T03:31:45.663Z,43.10
2018-11-28T03:32:45.677Z,44.20
2018-11-28T03:33:45.673Z,43.90
2018-11-28T03:34:45.758Z,45.40
2018-11-28T03:35:45.669Z,39.90
2018-11-28T03:36:45.671Z,44.70
2018-11-28T03:37:45.678Z,41.90
2018-11-28T03:38:45.684Z,43.40
2018-11-28T03:39:45.679Z,42.30
2018-11-28T03:40:45.669Z,48.00
2018-11-28T03:41:45.671Z,41.70
2018-11-28T03:42:45.677Z,41.30
2018-11-28T03:43:45.664Z,43.70
2018-11-28T03:44:45.667Z,46.40
2018-11-28T03:45:45.669Z,44.90
2018-11-28T03:46:45.668Z,41.00
2018-11-28T03:47:45.673Z,44.40
2018-11-28T03:48:45.675Z,42.20
2018-11-28T03:49:45.663Z,50.00
2018-11-28T03:50:45.660Z,42.80
2018-11-28T03:51:45.665Z,43.00
2018-11-28T03:52:45.663Z,43.10
2018-11-28T03:53:45.660Z,41.90
2018-11-28T03:54:45.662Z,41.40
2018-11-28T03:55:45.676Z,44.70
2018-11-28T03:56:45.665Z,40.90
2018-11-28T03:57:45.666Z,39.60
2018-11-28T03:58:45.662Z,42.50
2018-11-28T03:59:45.676Z,43.20
2018-11-28T04:00:45.669Z,43.90
2018-11-28T04:01:45.669Z,43.10
2018-11-28T04:02:45.670Z,41.30
2018-11-28T04:03:45.659Z,41.00
2018-11-28T04:04:45.660Z,43.00
2018-11-28T04:05:45.661Z,42.20
2018-11-28T04:06:45.661Z,45.70
2018-11-28T04:07:45.679Z,40.20
2018-11-28T04:08:45.659Z,40.10
2018-11-28T04:09:45.668Z,39.70
2018-11-28T04:10:45.656Z,40.60
2018-11-28T04:11:45.661Z,46.00
2018-11-28T04:12:45.655Z,42.10
2018-11-28T04:13:45.663Z,43.30
2018-11-28T04:14:45.654Z,41.60
2018-11-28T04:15:45.695Z,39.80
2018-11-28T04:16:45.682Z,44.20
2018-11-28T04:17:45.655Z,40.90
2018-11-28T04:18:45.662Z,40.20
2018-11-28T04:19:45.654Z,41.80
2018-11-28T04:20:45.653Z,45.20
2018-11-28T04:21:45.657Z,42.60
2018-11-28T04:22:45.669Z,42.70
2018-11-28T04:23:45.652Z,42.10
2018-11-28T04:24:45.650Z,43.70
2018-11-28T04:25:45.662Z,45.00
2018-11-28T04:26:45.654Z,41.10
2018-11-28T04:28:45.679Z,44.60
2018-11-28T04:29:45.670Z,42.70
2018-11-28T04:30:45.649Z,41.50
2018-11-28T04:31:45.643Z,41.90
2018-11-28T04:32:45.651Z,42.30
2018-11-28T04:33:45.643Z,47.00
2018-11-28T04:34:45.656Z,43.00
2018-11-28T04:35:45.650Z,41.70
2018-11-28T04:36:45.657Z,42.30
2018-11-28T04:37:45.648Z,43.00
2018-11-28T04:38:45.675Z,42.10
2018-11-28T04:39:45.646Z,43.10
2018-11-28T04:40:45.650Z,40.60
2018-11-28T04:41:45.649Z,42.10
2018-11-28T04:42:45.647Z,40.60
2018-11-28T04:43:45.654Z,42.00
2018-11-28T04:44:45.649Z,44.60
2018-11-28T04:45:45.642Z,42.50
2018-11-28T04:47:45.643Z,43.70
2018-11-28T04:48:45.647Z,45.40
2018-11-28T04:49:45.648Z,43.10
2018-11-28T04:50:45.660Z,40.70
2018-11-28T04:51:45.647Z,41.20
2018-11-28T04:52:45.650Z,42.20
2018-11-28T04:53:45.645Z,39.80
2018-11-28T04:54:45.645Z,42.80
2018-11-28T04:55:45.646Z,42.60
2018-11-28T04:56:45.670Z,41.20
2018-11-28T04:57:45.653Z,42.40
2018-11-28T04:58:45.636Z,40.90
2018-11-28T04:59:45.636Z,42.30
2018-11-28T05:00:45.661Z,43.40
2018-11-28T05:01:45.646Z,40.30
2018-11-28T05:02:45.636Z,42.80
2018-11-28T05:03:45.652Z,39.10
2018-11-28T05:04:45.644Z,42.70
2018-11-28T05:05:45.638Z,41.20
2018-11-28T05:06:45.636Z,42.50
2018-11-28T05:07:45.648Z,40.00
2018-11-28T05:08:45.636Z,41.60
2018-11-28T05:09:45.657Z,42.10
2018-11-28T05:10:45.646Z,38.80
2018-11-28T05:11:45.648Z,40.70
2018-11-28T05:12:45.650Z,43.30
2018-11-28T05:13:45.634Z,43.30
2018-11-28T05:14:45.636Z,40.10
2018-11-28T05:15:45.638Z,43.40
2018-11-28T05:16:45.638Z,46.10
2018-11-28T05:17:45.645Z,41.90
2018-11-28T05:18:45.637Z,41.10
2018-11-28T05:19:45.634Z,37.20
2018-11-28T05:20:45.625Z,44.70
2018-11-28T05:21:45.640Z,42.60
2018-11-28T05:22:45.639Z,41.90
2018-11-28T05:24:45.650Z,43.20
2018-11-28T05:25:45.642Z,38.30
2018-11-28T05:26:45.630Z,41.00
2018-11-28T05:27:45.636Z,41.90
2018-11-28T05:28:45.641Z,40.60
2018-11-28T05:29:45.644Z,41.50
2018-11-28T05:30:45.650Z,41.00
2018-11-28T05:31:45.653Z,39.60
2018-11-28T05:32:45.643Z,39.70
2018-11-28T05:33:45.636Z,41.90
2018-11-28T05:34:45.645Z,44.60
2018-11-28T05:35:45.639Z,40.50
2018-11-28T05:36:45.642Z,41.80
2018-11-28T05:37:45.639Z,39.50
2018-11-28T05:38:45.635Z,41.20
2018-11-28T05:39:45.651Z,40.40
2018-11-28T05:40:45.646Z,39.70
2018-11-28T05:41:45.640Z,41.80
2018-11-28T05:42:45.636Z,40.50
2018-11-28T05:43:45.636Z,41.50
2018-11-28T05:45:45.630Z,39.70
2018-11-28T05:46:45.636Z,41.10
2018-11-28T05:47:45.634Z,42.00
2018-11-28T05:48:45.631Z,42.10
2018-11-28T05:49:45.631Z,40.40
2018-11-28T05:50:45.646Z,39.70
2018-11-28T05:51:45.637Z,45.10
2018-11-28T05:52:45.643Z,43.70
2018-11-28T05:53:45.636Z,40.90
2018-11-28T05:54:45.633Z,38.60
2018-11-28T05:55:45.631Z,40.00
2018-11-28T05:56:45.625Z,39.30
2018-11-28T05:57:45.649Z,42.70
2018-11-28T05:58:45.641Z,42.00
2018-11-28T05:59:45.628Z,42.40
2018-11-28T06:00:45.696Z,40.90
2018-11-28T06:01:45.637Z,41.40
2018-11-28T06:02:45.633Z,43.20
2018-11-28T06:03:45.633Z,41.20
2018-11-28T06:04:45.645Z,39.80
2018-11-28T06:05:45.638Z,42.10
2018-11-28T06:06:45.646Z,39.20
2018-11-28T06:07:45.643Z,41.30
2018-11-28T06:08:45.628Z,39.90
2018-11-28T06:09:45.636Z,39.80
2018-11-28T06:10:45.630Z,38.10
2018-11-28T06:11:45.636Z,39.80
2018-11-28T06:12:45.629Z,37.30
2018-11-28T06:13:45.627Z,39.00
2018-11-28T06:14:45.627Z,39.90
2018-11-28T06:15:45.634Z,39.30
2018-11-28T06:16:45.638Z,41.60
2018-11-28T06:17:45.631Z,38.80
2018-11-28T06:18:45.632Z,40.60
2018-11-28T06:19:45.637Z,37.80
2018-11-28T06:20:45.631Z,39.90
2018-11-28T06:21:45.629Z,42.50
2018-11-28T06:22:45.633Z,40.70
2018-11-28T06:23:45.637Z,41.80
2018-11-28T06:24:45.639Z,40.40
2018-11-28T06:25:45.628Z,39.40
2018-11-28T06:26:45.632Z,39.40
2018-11-28T06:27:45.649Z,43.30
2018-11-28T06:28:45.637Z,42.70
2018-11-28T06:29:45.632Z,37.90
2018-11-28T06:30:45.629Z,38.60
2018-11-28T06:31:45.652Z,40.10
2018-11-28T06:32:50.988Z,39.40
2018-11-28T06:33:45.789Z,41.90
2018-11-28T06:34:45.644Z,41.00
2018-11-28T06:35:45.641Z,40.10
2018-11-28T06:36:45.675Z,38.60
2018-11-28T06:38:45.634Z,41.60
2018-11-28T06:39:45.626Z,42.20
2018-11-28T06:40:45.632Z,39.30
2018-11-28T06:41:45.639Z,42.90
2018-11-28T06:42:45.637Z,42.70
2018-11-28T06:44:45.633Z,38.10
2018-11-28T06:45:45.640Z,43.00
2018-11-28T06:46:45.699Z,47.90
2018-11-28T06:47:45.633Z,41.70
2018-11-28T06:48:45.632Z,43.60
2018-11-28T06:49:45.644Z,45.60
2018-11-28T06:50:45.633Z,43.20
2018-11-28T06:51:45.634Z,43.70
2018-11-28T06:52:45.639Z,39.50
2018-11-28T06:53:45.626Z,39.10
2018-11-28T06:54:45.632Z,43.20
2018-11-28T06:55:45.634Z,39.00
2018-11-28T06:56:45.632Z,40.20
2018-11-28T06:57:45.624Z,40.20
2018-11-28T06:58:45.633Z,37.90
2018-11-28T06:59:45.642Z,41.50
2018-11-28T07:00:45.638Z,39.20
2018-11-28T07:01:45.645Z,41.40
2018-11-28T07:02:45.623Z,41.30
2018-11-28T07:03:45.636Z,39.40
2018-11-28T07:04:45.632Z,38.60
2018-11-28T07:05:45.632Z,40.70
2018-11-28T07:06:45.632Z,36.40
2018-11-28T07:07:45.638Z,39.00
2018-11-28T07:08:45.644Z,39.20
2018-11-28T07:09:45.637Z,38.30
2018-11-28T07:10:45.632Z,40.00
2018-11-28T07:11:45.632Z,40.80
2018-11-28T07:12:45.641Z,37.70
2018-11-28T07:13:45.638Z,38.80
2018-11-28T07:15:45.653Z,37.30
2018-11-28T07:16:45.637Z,36.10
2018-11-28T07:17:45.638Z,40.90
2018-11-28T07:18:45.637Z,41.80
2018-11-28T07:19:45.641Z,38.40
2018-11-28T07:20:45.638Z,39.60
2018-11-28T07:21:45.644Z,44.20
2018-11-28T07:22:45.637Z,39.20
2018-11-28T07:23:45.649Z,41.60
2018-11-28T07:24:45.643Z,38.90
2018-11-28T07:25:45.643Z,41.90
2018-11-28T07:26:45.646Z,43.90
2018-11-28T07:27:45.696Z,43.10
2018-11-28T07:28:45.641Z,43.50
2018-11-28T07:29:45.651Z,39.90
2018-11-28T07:30:45.653Z,41.50
2018-11-28T07:31:45.650Z,43.30
2018-11-28T07:32:45.648Z,42.90
2018-11-28T07:33:45.654Z,43.10
2018-11-28T07:34:45.643Z,45.10
2018-11-28T07:35:45.646Z,47.10
2018-11-28T07:36:45.660Z,45.70
2018-11-28T07:37:45.647Z,45.70
2018-11-28T07:38:45.646Z,45.90
2018-11-28T07:39:45.653Z,47.40
2018-11-28T07:40:45.651Z,43.50
2018-11-28T07:41:45.651Z,46.00
2018-11-28T07:42:45.646Z,41.80
2018-11-28T07:43:45.645Z,40.70
2018-11-28T07:44:45.647Z,43.30
2018-11-28T07:45:45.679Z,40.30
2018-11-28T07:46:45.659Z,43.30
2018-11-28T07:47:45.646Z,45.20
2018-11-28T07:48:45.650Z,47.60
2018-11-28T07:49:45.655Z,43.80
2018-11-28T07:50:45.661Z,41.40
2018-11-28T07:51:45.664Z,42.30
2018-11-28T07:52:45.651Z,43.70
2018-11-28T07:53:45.655Z,42.60
2018-11-28T07:54:45.660Z,44.90
2018-11-28T07:55:45.659Z,45.70
2018-11-28T07:56:45.656Z,45.40
2018-11-28T07:57:45.659Z,48.70
2018-11-28T07:58:45.653Z,42.00
2018-11-28T07:59:45.659Z,45.40
2018-11-28T08:00:45.662Z,43.10
2018-11-28T08:01:45.664Z,39.60
2018-11-28T08:02:45.657Z,40.90
2018-11-28T08:04:45.686Z,38.40
2018-11-28T08:05:45.672Z,42.00
2018-11-28T08:06:45.663Z,41.40
2018-11-28T08:07:45.680Z,41.90
2018-11-28T08:08:45.666Z,42.10
2018-11-28T08:10:45.669Z,43.80
2018-11-28T08:11:45.669Z,43.00
2018-11-28T08:13:45.667Z,44.70
2018-11-28T08:14:45.671Z,43.10
2018-11-28T08:15:45.672Z,37.90
2018-11-28T08:16:45.671Z,36.70
2018-11-28T08:17:45.683Z,41.80
2018-11-28T08:18:45.681Z,44.20
2018-11-28T08:19:45.677Z,41.50
2018-11-28T08:20:45.684Z,40.90
2018-11-28T08:21:45.689Z,44.70
2018-11-28T08:22:45.680Z,38.60
2018-11-28T08:23:45.692Z,37.40
2018-11-28T08:24:45.687Z,41.00
2018-11-28T08:25:45.758Z,41.50
2018-11-28T08:26:45.688Z,42.30
2018-11-28T08:27:45.684Z,37.90
2018-11-28T08:28:45.687Z,41.00
2018-11-28T08:29:45.687Z,39.40
2018-11-28T08:30:45.687Z,39.40
2018-11-28T08:31:45.690Z,41.40
2018-11-28T08:32:45.686Z,37.80
2018-11-28T08:33:45.689Z,42.30
2018-11-28T08:34:45.700Z,41.30
2018-11-28T08:35:45.699Z,41.00
2018-11-28T08:36:45.710Z,44.10
2018-11-28T08:37:45.707Z,41.90
2018-11-28T08:38:45.705Z,41.80
2018-11-28T08:39:45.696Z,40.10
2018-11-28T08:40:45.730Z,40.80
2018-11-28T08:41:45.705Z,41.80
2018-11-28T08:42:45.693Z,42.50
2018-11-28T08:43:45.701Z,35.30
2018-11-28T08:44:45.700Z,37.20
2018-11-28T08:45:45.723Z,39.30
2018-11-28T08:46:45.711Z,38.20
2018-11-28T08:47:45.718Z,32.80
2018-11-28T08:48:45.718Z,36.60
2018-11-28T08:49:45.730Z,37.50
2018-11-28T08:50:45.717Z,37.00
2018-11-28T08:51:45.715Z,40.90
2018-11-28T08:53:45.722Z,36.40
2018-11-28T08:54:45.719Z,39.40
2018-11-28T08:55:45.718Z,35.50
2018-11-28T08:56:45.731Z,37.20
2018-11-28T08:57:45.719Z,36.80
2018-11-28T08:58:45.727Z,39.00
2018-11-28T08:59:45.744Z,38.20
2018-11-28T09:00:45.733Z,35.40
2018-11-28T09:01:45.735Z,33.90
2018-11-28T09:02:45.732Z,37.00
2018-11-28T09:03:45.735Z,39.00
2018-11-28T09:04:45.743Z,36.10
2018-11-28T09:05:45.741Z,36.90
2018-11-28T09:06:45.742Z,34.80
2018-11-28T09:07:45.735Z,37.50
2018-11-28T09:08:45.739Z,35.70
2018-11-28T09:09:45.777Z,33.20
2018-11-28T09:11:45.764Z,33.90
2018-11-28T09:12:45.756Z,34.00
2018-11-28T09:13:45.747Z,39.00
2018-11-28T09:14:45.759Z,35.80
2018-11-28T09:15:45.777Z,35.60
2018-11-28T09:16:45.749Z,37.50
2018-11-28T09:17:45.759Z,34.60
2018-11-28T09:18:45.772Z,36.00
2018-11-28T09:19:45.763Z,34.90
2018-11-28T09:20:45.765Z,33.30
2018-11-28T09:21:45.767Z,35.20
2018-11-28T09:22:45.769Z,34.30
2018-11-28T09:23:45.776Z,42.40
2018-11-28T09:24:45.777Z,36.70
2018-11-28T09:25:45.777Z,33.00
2018-11-28T09:26:45.805Z,35.20
2018-11-28T09:27:45.774Z,35.40
2018-11-28T09:28:45.785Z,41.80
2018-11-28T09:29:45.790Z,39.00
2018-11-28T09:30:45.790Z,37.50
2018-11-28T09:31:45.795Z,37.40
2018-11-28T09:32:45.804Z,39.00
2018-11-28T09:33:45.804Z,34.10
2018-11-28T09:34:45.814Z,33.70
2018-11-28T09:35:45.810Z,37.40
2018-11-28T09:36:45.818Z,36.80
2018-11-28T09:37:46.175Z,38.70
2018-11-28T09:38:45.826Z,35.90
2018-11-28T09:39:45.813Z,39.30
2018-11-28T09:40:45.833Z,37.80
2018-11-28T09:41:45.827Z,33.20
2018-11-28T09:42:45.828Z,33.20
2018-11-28T09:43:45.826Z,36.50
2018-11-28T09:45:45.833Z,37.30
2018-11-28T09:46:45.843Z,37.20
2018-11-28T09:47:45.838Z,36.50
2018-11-28T09:48:45.853Z,34.30
2018-11-28T09:49:45.856Z,40.50
2018-11-28T09:50:46.361Z,36.10
2018-11-28T09:51:46.283Z,32.90
2018-11-28T09:52:46.331Z,35.30
2018-11-28T09:53:45.874Z,33.80
2018-11-28T09:54:45.860Z,32.90
2018-11-28T09:55:45.867Z,31.70
2018-11-28T09:56:45.870Z,31.80
2018-11-28T09:57:45.877Z,31.10
2018-11-28T10:00:45.892Z,32.80
2018-11-28T10:01:45.898Z,29.90
2018-11-28T10:02:45.896Z,32.00
2018-11-28T10:04:45.906Z,31.50
2018-11-28T10:05:47.225Z,29.40
2018-11-28T10:06:45.912Z,33.00
2018-11-28T10:07:45.917Z,28.30
2018-11-28T10:08:45.920Z,31.50
2018-11-28T10:09:45.924Z,30.30
2018-11-28T10:10:45.927Z,29.70
2018-11-28T10:11:45.942Z,30.80
2018-11-28T10:12:45.941Z,28.30
2018-11-28T10:13:45.940Z,32.60
2018-11-28T10:14:45.955Z,27.90
2018-11-28T10:15:45.945Z,28.30
2018-11-28T10:16:46.391Z,31.00
2018-11-28T10:17:46.070Z,28.80
2018-11-28T10:19:45.960Z,27.30
2018-11-28T10:20:45.975Z,29.70
2018-11-28T10:21:45.986Z,27.30
2018-11-28T10:22:45.974Z,27.80
2018-11-28T10:23:45.966Z,26.70
2018-11-28T10:24:45.997Z,26.90
2018-11-28T10:25:45.982Z,26.30
2018-11-28T10:26:46.115Z,27.60
2018-11-28T10:27:45.989Z,28.20
2018-11-28T10:28:46.001Z,27.70
2018-11-28T10:29:46.016Z,27.00
2018-11-28T10:30:46.003Z,26.00
2018-11-28T10:31:46.010Z,24.70
2018-11-28T10:32:46.008Z,25.10
2018-11-28T10:33:46.021Z,26.50
2018-11-28T10:34:46.027Z,25.80
2018-11-28T10:35:46.630Z,25.20
2018-11-28T10:36:46.047Z,23.30
2018-11-28T10:37:46.046Z,27.70
2018-11-28T10:38:46.053Z,22.90
2018-11-28T10:39:46.045Z,23.50
2018-11-28T10:40:46.049Z,25.40
2018-11-28T10:41:46.050Z,24.80
2018-11-28T10:42:46.071Z,24.70
2018-11-28T10:43:46.063Z,24.80
2018-11-28T10:44:46.078Z,25.90
2018-11-28T10:45:46.079Z,22.30
2018-11-28T10:46:46.095Z,22.90
2018-11-28T10:47:46.087Z,24.50
2018-11-28T10:48:46.083Z,22.30
2018-11-28T10:49:46.087Z,23.90
2018-11-28T10:50:46.117Z,27.40
2018-11-28T10:51:50.267Z,22.50
2018-11-28T10:52:46.108Z,20.60
2018-11-28T10:53:46.143Z,22.80
2018-11-28T10:54:46.116Z,24.60
2018-11-28T10:55:46.123Z,22.10
2018-11-28T10:56:46.124Z,24.40
2018-11-28T10:57:46.130Z,23.30
2018-11-28T10:58:46.147Z,23.80
2018-11-28T10:59:46.132Z,24.10
2018-11-28T11:00:46.138Z,23.20
2018-11-28T11:01:46.136Z,26.40
2018-11-28T11:02:46.174Z,26.00
2018-11-28T11:03:46.146Z,25.40
2018-11-28T11:04:46.152Z,22.90
2018-11-28T11:05:46.180Z,25.10
2018-11-28T11:06:46.169Z,25.10
2018-11-28T11:07:46.165Z,25.80
2018-11-28T11:08:46.174Z,21.30
2018-11-28T11:09:46.209Z,23.00
2018-11-28T11:10:46.186Z,23.30
2018-11-28T11:11:46.183Z,25.00
2018-11-28T11:12:46.210Z,23.20
2018-11-28T11:13:46.201Z,23.50
2018-11-28T11:15:46.222Z,23.80
2018-11-28T11:16:46.234Z,22.40
2018-11-28T11:17:46.203Z,26.50
2018-11-28T11:18:46.217Z,23.30
2018-11-28T11:19:46.221Z,24.50
2018-11-28T11:20:46.247Z,22.20
2018-11-28T11:21:46.262Z,24.40
2018-11-28T11:22:46.234Z,25.60
2018-11-28T11:23:46.251Z,22.90
2018-11-28T11:24:46.262Z,24.00
2018-11-28T11:25:46.279Z,22.90
2018-11-28T11:26:46.260Z,25.90
2018-11-28T11:27:46.266Z,25.30
2018-11-28T11:28:46.258Z,22.60
2018-11-28T11:29:46.276Z,20.70
2018-11-28T11:30:46.294Z,21.60
2018-11-28T11:31:46.283Z,24.60
2018-11-28T11:32:46.303Z,23.60
2018-11-28T11:33:46.289Z,21.90
2018-11-28T11:34:46.291Z,24.20
2018-11-28T11:35:46.293Z,23.10
2018-11-28T11:36:46.301Z,23.80
2018-11-28T11:37:46.316Z,22.60
2018-11-28T11:38:46.319Z,22.80
2018-11-28T11:39:46.326Z,22.80
2018-11-28T11:40:46.325Z,23.00
2018-11-28T11:41:46.323Z,25.00
2018-11-28T11:42:46.332Z,25.20
2018-11-28T11:43:46.339Z,23.40
2018-11-28T11:44:46.347Z,23.60
2018-11-28T11:45:46.345Z,23.10
2018-11-28T11:46:46.344Z,22.30
2018-11-28T11:47:46.358Z,22.80
2018-11-28T11:48:46.359Z,23.00
2018-11-28T11:49:46.376Z,25.30
2018-11-28T11:50:46.379Z,25.30
2018-11-28T11:51:46.377Z,25.30
2018-11-28T11:53:46.397Z,22.50
2018-11-28T11:54:46.392Z,21.60
2018-11-28T11:55:46.396Z,26.40
2018-11-28T11:57:46.406Z,23.30
2018-11-28T11:58:46.418Z,22.70
2018-11-28T11:59:46.429Z,24.60
2018-11-28T12:00:48.450Z,23.20
2018-11-28T12:01:46.433Z,26.10
2018-11-28T12:02:46.437Z,21.10
2018-11-28T12:03:46.450Z,24.50
2018-11-28T12:04:46.450Z,20.40
2018-11-28T12:05:46.470Z,22.10
2018-11-28T12:06:46.554Z,20.80
2018-11-28T12:07:46.472Z,24.30
2018-11-28T12:08:46.467Z,21.50
2018-11-28T12:09:46.479Z,22.30
2018-11-28T12:10:46.486Z,19.80
2018-11-28T12:11:46.502Z,23.10
2018-11-28T12:12:51.525Z,20.10
2018-11-28T12:13:46.497Z,24.10
2018-11-28T12:14:46.512Z,26.70
2018-11-28T12:15:46.512Z,23.20
2018-11-28T12:16:46.581Z,21.90
2018-11-28T12:17:46.527Z,22.50
2018-11-28T12:18:46.523Z,20.50
2018-11-28T12:19:46.533Z,21.90
2018-11-28T12:20:46.564Z,19.70
2018-11-28T12:21:46.540Z,21.60
2018-11-28T12:22:46.552Z,22.50
2018-11-28T12:23:46.551Z,20.00
2018-11-28T12:24:46.569Z,22.80
2018-11-28T12:25:46.568Z,22.40
2018-11-28T12:26:46.572Z,21.20
2018-11-28T12:27:46.604Z,22.10
2018-11-28T12:28:46.595Z,21.30
2018-11-28T12:29:46.583Z,21.80
2018-11-28T12:30:46.585Z,20.80
2018-11-28T12:31:46.594Z,21.40
2018-11-28T12:32:46.595Z,22.10
2018-11-28T12:33:46.603Z,21.70
2018-11-28T12:34:50.394Z,21.60
2018-11-28T12:35:46.611Z,22.50
2018-11-28T12:36:46.618Z,22.20
2018-11-28T12:37:46.636Z,23.20
2018-11-28T12:38:46.639Z,24.50
2018-11-28T12:41:46.667Z,21.10
2018-11-28T12:43:46.673Z,19.90
2018-11-28T12:46:46.679Z,21.90
2018-11-28T12:47:46.676Z,23.10
2018-11-28T12:48:46.678Z,24.40
2018-11-28T12:49:46.683Z,22.60
2018-11-28T12:50:46.700Z,20.80
2018-11-28T12:51:46.691Z,24.20
2018-11-28T12:52:46.706Z,24.70
2018-11-28T12:53:46.702Z,22.50
2018-11-28T12:54:46.725Z,24.00
2018-11-28T12:55:46.717Z,22.90
2018-11-28T12:56:46.900Z,22.60
2018-11-28T12:58:46.729Z,24.90
2018-11-28T12:59:46.736Z,20.00
2018-11-28T13:00:46.752Z,21.70
2018-11-28T13:02:46.749Z,22.30
2018-11-28T13:03:46.744Z,21.10
2018-11-28T13:04:46.755Z,24.00
2018-11-28T13:05:46.786Z,18.70
2018-11-28T13:06:46.770Z,20.30
2018-11-28T13:07:46.774Z,21.60
2018-11-28T13:08:46.782Z,19.60
2018-11-28T13:09:46.785Z,22.30
2018-11-28T13:10:46.784Z,18.50
2018-11-28T13:11:46.793Z,21.90
2018-11-28T13:12:46.797Z,20.10
2018-11-28T13:13:46.805Z,20.00
2018-11-28T13:14:46.804Z,23.00
2018-11-28T13:15:46.806Z,20.30
2018-11-28T13:16:46.823Z,21.20
2018-11-28T13:17:46.818Z,17.80
2018-11-28T13:18:46.826Z,21.80
2018-11-28T13:19:46.838Z,19.90
2018-11-28T13:20:46.902Z,19.60
2018-11-28T13:21:46.838Z,23.40
2018-11-28T13:22:46.855Z,19.10
2018-11-28T13:23:46.850Z,19.80
2018-11-28T13:24:46.857Z,19.40
2018-11-28T13:26:46.864Z,19.70
2018-11-28T13:27:46.879Z,20.60
2018-11-28T13:28:46.863Z,19.20
2018-11-28T13:29:46.879Z,19.20
2018-11-28T13:30:46.916Z,18.90
2018-11-28T13:31:46.886Z,18.90
2018-11-28T13:32:46.920Z,19.80
2018-11-28T13:33:46.891Z,18.10
2018-11-28T13:34:46.909Z,17.60